Česky Dansk Deutsch English Español Suomi Français Magyar Italiano Nederlands norsk Polski Português svenska Türkçe

 

Het Weer

Rouen (Frankrijk)

00:00, 16 augustus 2016 (GMT)

NWNNE
WE
SWSSE
Home            
Rouen Evreux Vittefleur / St. Vale Beauvais Toussus Le Noble La Heve Abbeville Creil Fafb Villacoublay Paris / Le Bourget Paris Met Center Chartres Paris-Aeroport Charles De Gaulle Paris-Orly Caen Le Touquet Alencon Melun Chateaudun Saint-Quentin Orleans Cambrai Lydd Airport

Om een weerknop op uw website of weblog te plaatsen, copieer onderstaande code en plak die in uw pagina. In het eerste vakje staat HTML-code, in het tweede vakje UBB-code.


Add to Google

Details

Wind speed:3 bf, 7 kn, 3.6 m/s, 8.1 miles/h, 13.0 km/h
Wind direction:NE, 040°
Visibilidade global: 8000 m, 8.0 km, 26247 ft, 5.0 miles
Temperatura:16°C, 61°F
Ponto de orvalho:11°C, 52°F
Pressão atmosférica:1020 hPa, 765.1 mmHg, 30.12 inHg, 1.007 atm
Humidade relativa:72.2 %
METAR:LFOP 160000Z AUTO 04007KT 8000 NSC 16/11 Q1020 NOSIG

Snelkoppelingen

Actuele weersinformatie van de hele wereld. Voeg locaties toe met het plus (+) symbool. Deze snelkoppelingen kunnen worden toegevoegd aan Google.

Lid van de Technetium groep

website free tracking
StatCounter NetStat W3C Validator

02-10-2022 06:16:29
astro.technetium.be money.technetium.be phote.technetium.be tafeltennistafel.technetium.be www.ligfiets.net